Karmel — 9HA2896 — position and weather

sailwx.info

Track history (hours):
 
Tides and Currents Weather Stations Pressure Air Temp Water Temp Dewpoint Dewpoint Depression Visibility Wind Speed Wind Dir Waves Ship Positions

Karmel

Last reported at 2015-Mar-03 12:31 UTC. Time now 2015-Mar-03 22:37 UTC.
Position N 55°35' E 015°18'.

Length 90 m; draft 3.6 m.

Type: Cargo ship. MMSI: 256632000.

Date/timePositionNaut miles runAvg speedWind from/ knotsBaromVisibWave heightAir tempDewpointWater temp
2015-Mar-03 12:31N 55°35' E 015°18'1111.6
2015-Mar-03 11:33N 55°30' E 015°01'1211.6
2015-Mar-03 10:33N 55°24' E 014°43'1211.7
2015-Mar-03 09:33N 55°16' E 014°28'1111.0
2015-Mar-03 08:33N 55°11' E 014°11'1211.7
2015-Mar-03 07:33N 55°12' E 013°50'1211.9
2015-Mar-03 06:31N 55°13' E 013°29'1211.8
2015-Mar-03 05:32N 55°14' E 013°09'1211.8
2015-Mar-03 04:33N 55°16' E 012°48'9 9.4
2015-Mar-03 03:33N 55°24' E 012°40'1212.2
2015-Mar-03 02:33N 55°36' E 012°42'1313.0
2015-Mar-03 01:34N 55°49' E 012°40'1212.2
2015-Mar-03 00:33N 56°01' E 012°38'1211.7
2015-Mar-02 23:34N 56°09' E 012°22'1211.6
2015-Mar-02 22:33N 56°09' E 012°01'60 9.9
2015-Mar-02 16:31N 56°09' E 010°14'0 0.0
2015-Mar-02 15:31N 56°09' E 010°14'0 0.0
2015-Mar-02 14:31N 56°09' E 010°14'0 0.0
2015-Mar-02 13:31N 56°09' E 010°14'0 0.0
2015-Mar-02 12:28N 56°09' E 010°14'0 0.0
2015-Mar-02 11:31N 56°09' E 010°14'0 0.0
2015-Mar-02 10:31N 56°09' E 010°14'0 0.0
2015-Mar-02 09:31N 56°09' E 010°14'0 0.0
2015-Mar-02 08:31N 56°09' E 010°14'0 0.0
2015-Mar-02 07:31N 56°09' E 010°14'0 0.0
2015-Mar-02 06:31N 56°09' E 010°14'59 7.3
2015-Mar-01 22:24N 56°10' E 012°00'8 8.9
2015-Mar-01 21:34N 56°10' E 012°14'8 7.8
2015-Mar-01 20:34N 56°08' E 012°27'9 9.0
2015-Mar-01 19:33N 56°03' E 012°40'9 9.3
2015-Mar-01 18:34N 55°54' E 012°44'9 9.5
2015-Mar-01 17:33N 55°44' E 012°41'1010.4
2015-Mar-01 16:34N 55°34' E 012°42'1010.2
2015-Mar-01 15:34N 55°24' E 012°42'9 8.1
2015-Mar-01 14:27N 55°17' E 012°51'32 8.1
2015-Mar-01 10:32N 55°15' E 013°47'8 8.5
2015-Mar-01 09:34N 55°14' E 014°01'8 8.1
2015-Mar-01 08:34N 55°14' E 014°16'7 7.0
2015-Mar-01 07:34N 55°19' E 014°25'7 7.4
2015-Mar-01 06:33N 55°24' E 014°34'8 8.1
2015-Mar-01 05:34N 55°27' E 014°47'10 9.7
2015-Mar-01 04:33N 55°30' E 015°03'10 9.5
2015-Mar-01 03:33N 55°33' E 015°19'  
2015-Feb-25 11:34N 55°33' E 015°36'1110.8
2015-Feb-25 10:32N 55°29' E 015°17'1010.5
2015-Feb-25 09:34N 55°26' E 014°60'1110.2
2015-Feb-25 08:26N 55°23' E 014°41'910.5
2015-Feb-25 07:33N 55°16' E 014°29'4010.0
2015-Feb-25 03:34N 55°14' E 013°19'1110.7
2015-Feb-25 02:32N 55°15' E 012°60'1010.4
2015-Feb-25 01:33N 55°17' E 012°42'4 3.8
2015-Feb-25 00:33N 55°20' E 012°39'1 0.8
2015-Feb-24 23:33N 55°20' E 012°38'10 9.9
2015-Feb-24 22:33N 55°29' E 012°32'7 6.9
2015-Feb-24 21:33N 55°36' E 012°29'0 0.0
2015-Feb-24 20:33N 55°36' E 012°29'0 0.0
2015-Feb-24 19:33N 55°36' E 012°29'0 0.0
2015-Feb-24 18:33N 55°36' E 012°29'0 0.0
2015-Feb-24 17:33N 55°36' E 012°29'0 0.0
2015-Feb-24 16:33N 55°36' E 012°29'0 0.0
2015-Feb-24 15:33N 55°36' E 012°29'0 0.0
2015-Feb-24 14:33N 55°36' E 012°29'0 0.0
2015-Feb-24 13:33N 55°36' E 012°29'0 0.0
2015-Feb-24 12:33N 55°36' E 012°29'0 0.0
2015-Feb-24 11:33N 55°36' E 012°29'0 0.0
2015-Feb-24 10:33N 55°36' E 012°29'0 0.0
2015-Feb-24 09:33N 55°36' E 012°29'0 0.0
2015-Feb-24 08:32N 55°36' E 012°29'2 1.9
2015-Feb-24 07:33N 55°34' E 012°29'2 2.4
2015-Feb-24 06:32N 55°32' E 012°29'0 0.0
2015-Feb-24 05:33N 55°32' E 012°29'0 0.0
2015-Feb-24 04:33N 55°32' E 012°29'0 0.0
2015-Feb-24 03:33N 55°32' E 012°29'0 0.0
2015-Feb-24 02:32N 55°32' E 012°29'0 0.0
2015-Feb-24 01:33N 55°32' E 012°29'0 0.0
2015-Feb-24 00:33N 55°32' E 012°29'0 0.0
2015-Feb-23 23:33N 55°32' E 012°29'0 0.0
2015-Feb-23 22:33N 55°32' E 012°29'0 0.0
2015-Feb-23 21:33N 55°32' E 012°29'0 0.0
2015-Feb-23 20:33N 55°32' E 012°29'0 0.0
2015-Feb-23 19:33N 55°32' E 012°29'0 0.0
2015-Feb-23 18:33N 55°32' E 012°29'0 0.0
2015-Feb-23 17:33N 55°32' E 012°29'0 0.0
2015-Feb-23 16:33N 55°32' E 012°29'0 0.0
2015-Feb-23 15:33N 55°32' E 012°29'0 0.0
2015-Feb-23 14:33N 55°32' E 012°29'0 0.0
2015-Feb-23 13:33N 55°32' E 012°29'6 6.3
2015-Feb-23 12:33N 55°26' E 012°33'9 8.3
2015-Feb-23 11:31N 55°19' E 012°41'7 7.3
2015-Feb-23 10:33N 55°16' E 012°53'6 6.1
2015-Feb-23 09:33N 55°16' E 013°04'22 7.2
2015-Feb-23 06:29N 55°15' E 013°42'8 8.5
2015-Feb-23 05:33N 55°14' E 013°56'9 9.4
2015-Feb-23 04:33N 55°14' E 014°12'9 8.8
2015-Feb-23 03:33N 55°20' E 014°25'10 9.6
2015-Feb-23 02:33N 55°26' E 014°37'10 9.9
2015-Feb-23 01:33N 55°31' E 014°52'10 9.9
2015-Feb-23 00:30N 55°37' E 015°08'9 9.8
2015-Feb-22 23:32N 55°41' E 015°22'  
Track history (hours):
 
Tides and Currents Weather Stations Pressure Air Temp Water Temp Dewpoint Dewpoint Depression Visibility Wind Speed Wind Dir Waves Ship Positions

Karmel

Last reported at 2015-Mar-03 12:31 UTC. Time now 2015-Mar-03 22:37 UTC.
Position N 55°35' E 015°18'.

Length 90 m; draft 3.6 m.

Type: Cargo ship. MMSI: 256632000.

Date/timePositionNaut miles runAvg speedWind from/ knotsBaromVisibWave heightAir tempDewpointWater temp
2015-Mar-03 12:31N 55°35' E 015°18'1111.6
2015-Mar-03 11:33N 55°30' E 015°01'1211.6
2015-Mar-03 10:33N 55°24' E 014°43'1211.7
2015-Mar-03 09:33N 55°16' E 014°28'1111.0
2015-Mar-03 08:33N 55°11' E 014°11'1211.7
2015-Mar-03 07:33N 55°12' E 013°50'1211.9
2015-Mar-03 06:31N 55°13' E 013°29'1211.8
2015-Mar-03 05:32N 55°14' E 013°09'1211.8
2015-Mar-03 04:33N 55°16' E 012°48'9 9.4
2015-Mar-03 03:33N 55°24' E 012°40'1212.2
2015-Mar-03 02:33N 55°36' E 012°42'1313.0
2015-Mar-03 01:34N 55°49' E 012°40'1212.2
2015-Mar-03 00:33N 56°01' E 012°38'1211.7
2015-Mar-02 23:34N 56°09' E 012°22'1211.6
2015-Mar-02 22:33N 56°09' E 012°01'60 9.9
2015-Mar-02 16:31N 56°09' E 010°14'0 0.0
2015-Mar-02 15:31N 56°09' E 010°14'0 0.0
2015-Mar-02 14:31N 56°09' E 010°14'0 0.0
2015-Mar-02 13:31N 56°09' E 010°14'0 0.0
2015-Mar-02 12:28N 56°09' E 010°14'0 0.0
2015-Mar-02 11:31N 56°09' E 010°14'0 0.0
2015-Mar-02 10:31N 56°09' E 010°14'0 0.0
2015-Mar-02 09:31N 56°09' E 010°14'0 0.0
2015-Mar-02 08:31N 56°09' E 010°14'0 0.0
2015-Mar-02 07:31N 56°09' E 010°14'0 0.0
2015-Mar-02 06:31N 56°09' E 010°14'59 7.3
2015-Mar-01 22:24N 56°10' E 012°00'8 8.9
2015-Mar-01 21:34N 56°10' E 012°14'8 7.8
2015-Mar-01 20:34N 56°08' E 012°27'9 9.0
2015-Mar-01 19:33N 56°03' E 012°40'9 9.3
2015-Mar-01 18:34N 55°54' E 012°44'9 9.5
2015-Mar-01 17:33N 55°44' E 012°41'1010.4
2015-Mar-01 16:34N 55°34' E 012°42'1010.2
2015-Mar-01 15:34N 55°24' E 012°42'9 8.1
2015-Mar-01 14:27N 55°17' E 012°51'32 8.1
2015-Mar-01 10:32N 55°15' E 013°47'8 8.5
2015-Mar-01 09:34N 55°14' E 014°01'8 8.1
2015-Mar-01 08:34N 55°14' E 014°16'7 7.0
2015-Mar-01 07:34N 55°19' E 014°25'7 7.4
2015-Mar-01 06:33N 55°24' E 014°34'8 8.1
2015-Mar-01 05:34N 55°27' E 014°47'10 9.7
2015-Mar-01 04:33N 55°30' E 015°03'10 9.5
2015-Mar-01 03:33N 55°33' E 015°19'  
2015-Feb-25 11:34N 55°33' E 015°36'1110.8
2015-Feb-25 10:32N 55°29' E 015°17'1010.5
2015-Feb-25 09:34N 55°26' E 014°60'1110.2
2015-Feb-25 08:26N 55°23' E 014°41'910.5
2015-Feb-25 07:33N 55°16' E 014°29'4010.0
2015-Feb-25 03:34N 55°14' E 013°19'1110.7
2015-Feb-25 02:32N 55°15' E 012°60'1010.4
2015-Feb-25 01:33N 55°17' E 012°42'4 3.8
2015-Feb-25 00:33N 55°20' E 012°39'1 0.8
2015-Feb-24 23:33N 55°20' E 012°38'10 9.9
2015-Feb-24 22:33N 55°29' E 012°32'7 6.9
2015-Feb-24 21:33N 55°36' E 012°29'0 0.0
2015-Feb-24 20:33N 55°36' E 012°29'0 0.0
2015-Feb-24 19:33N 55°36' E 012°29'0 0.0
2015-Feb-24 18:33N 55°36' E 012°29'0 0.0
2015-Feb-24 17:33N 55°36' E 012°29'0 0.0
2015-Feb-24 16:33N 55°36' E 012°29'0 0.0
2015-Feb-24 15:33N 55°36' E 012°29'0 0.0
2015-Feb-24 14:33N 55°36' E 012°29'0 0.0
2015-Feb-24 13:33N 55°36' E 012°29'0 0.0
2015-Feb-24 12:33N 55°36' E 012°29'0 0.0
2015-Feb-24 11:33N 55°36' E 012°29'0 0.0
2015-Feb-24 10:33N 55°36' E 012°29'0 0.0
2015-Feb-24 09:33N 55°36' E 012°29'0 0.0
2015-Feb-24 08:32N 55°36' E 012°29'2 1.9
2015-Feb-24 07:33N 55°34' E 012°29'2 2.4
2015-Feb-24 06:32N 55°32' E 012°29'0 0.0
2015-Feb-24 05:33N 55°32' E 012°29'0 0.0
2015-Feb-24 04:33N 55°32' E 012°29'0 0.0
2015-Feb-24 03:33N 55°32' E 012°29'0 0.0
2015-Feb-24 02:32N 55°32' E 012°29'0 0.0
2015-Feb-24 01:33N 55°32' E 012°29'0 0.0
2015-Feb-24 00:33N 55°32' E 012°29'0 0.0
2015-Feb-23 23:33N 55°32' E 012°29'0 0.0
2015-Feb-23 22:33N 55°32' E 012°29'0 0.0
2015-Feb-23 21:33N 55°32' E 012°29'0 0.0
2015-Feb-23 20:33N 55°32' E 012°29'0 0.0
2015-Feb-23 19:33N 55°32' E 012°29'0 0.0
2015-Feb-23 18:33N 55°32' E 012°29'0 0.0
2015-Feb-23 17:33N 55°32' E 012°29'0 0.0
2015-Feb-23 16:33N 55°32' E 012°29'0 0.0
2015-Feb-23 15:33N 55°32' E 012°29'0 0.0
2015-Feb-23 14:33N 55°32' E 012°29'0 0.0
2015-Feb-23 13:33N 55°32' E 012°29'6 6.3
2015-Feb-23 12:33N 55°26' E 012°33'9 8.3
2015-Feb-23 11:31N 55°19' E 012°41'7 7.3
2015-Feb-23 10:33N 55°16' E 012°53'6 6.1
2015-Feb-23 09:33N 55°16' E 013°04'22 7.2
2015-Feb-23 06:29N 55°15' E 013°42'8 8.5
2015-Feb-23 05:33N 55°14' E 013°56'9 9.4
2015-Feb-23 04:33N 55°14' E 014°12'9 8.8
2015-Feb-23 03:33N 55°20' E 014°25'10 9.6
2015-Feb-23 02:33N 55°26' E 014°37'10 9.9
2015-Feb-23 01:33N 55°31' E 014°52'10 9.9
2015-Feb-23 00:30N 55°37' E 015°08'9 9.8
2015-Feb-22 23:32N 55°41' E 015°22'  

Dump ship's entire track history